This is the latest recevied weather packets stored in our database for station/object OE-11121. If no packets are shown the sender has not sent any weather packets the latest 10 day(s).
| Time | Temp. | Humidity | Pressure | Rain* | Wind** | Luminosity | Snow |
|---|---|---|---|---|---|---|---|
| 1787927732 | 26.67° C | 56% | 1009.4 hPa | 0 mm | - | 565 W/m² | - |
| 1787927132 | 26.67° C | 55% | 1009.5 hPa | 0 mm | - | 613 W/m² | - |
| 1787926306 | 26.11° C | 60% | 1009.5 hPa | 0 mm | - | 481 W/m² | - |
| 1787925933 | 26.67° C | 57% | 1009.5 hPa | 0 mm | - | 192 W/m² | - |
| 1787925333 | 27.78° C | 52% | 1008.7 hPa | 0 mm | - | 120 W/m² | - |
| 1787924506 | 28.33° C | 46% | 1007.9 hPa | 0 mm | - | 96 W/m² | - |
| 1787924133 | 30° C | 41% | 1007.2 hPa | 0 mm | - | 96 W/m² | - |
| 1787923533 | 31.67° C | 30% | 1006.6 hPa | 0 mm | - | 108 W/m² | - |
| 1787922704 | 31.11° C | 31% | 1006.8 hPa | 0 mm | - | 96 W/m² | - |
| 1787922332 | 31.11° C | 32% | 1006.8 hPa | 0 mm | - | 96 W/m² | - |
| 1787921733 | 31.11° C | 32% | 1006.9 hPa | 0 mm | - | 108 W/m² | - |
| 1787920905 | 31.11° C | 33% | 1007 hPa | 0 mm | - | 132 W/m² | - |
| 1787920533 | 31.67° C | 30% | 1006.9 hPa | 0 mm | - | 192 W/m² | - |
| 1787919933 | 32.22° C | 29% | 1007.2 hPa | 0 mm | - | 300 W/m² | - |
| 1787919105 | 32.22° C | 31% | 1007.2 hPa | 0 mm | - | 373 W/m² | - |
| 1787918732 | 32.22° C | 36% | 1007.2 hPa | 0 mm | - | 625 W/m² | - |
| 1787918132 | 31.11° C | 34% | 1007.4 hPa | 0 mm | - | 529 W/m² | - |
| 1787917305 | 30.56° C | 42% | 1007.6 hPa | 0 mm | - | 637 W/m² | - |
| 1787916933 | 31.67° C | 35% | 1007.9 hPa | 0 mm | - | 457 W/m² | - |
| 1787916333 | 31.67° C | 36% | 1007.8 hPa | 0 mm | - | 565 W/m² | - |
| 1787915505 | 30.56° C | 44% | 1008.2 hPa | 0 mm | - | 589 W/m² | - |
| 1787915133 | 31.11° C | 39% | 1007.8 hPa | 0 mm | - | 661 W/m² | - |
| 1787914533 | 30.56° C | 44% | 1008.2 hPa | 0 mm | - | 565 W/m² | - |
| 1787913706 | 30.56° C | 45% | 1008.1 hPa | 0 mm | - | 721 W/m² | - |
| 1787913333 | 30° C | 38% | 1008.2 hPa | 0 mm | - | 577 W/m² | - |
* Rain latest hour (hover to see other rain measurements)
** Current wind speed in m/s (hover to see current wind gust speed)